Time;durP1;ratioP1;P1;durP2;ratioP2;P2;SDS_P1;SDS_P2;PMS_P1;PMS_P2;Temp;Humidity;BMP_temperature;BMP_pressure;BME280_temperature;BME280_humidity;BME280_pressure;Samples;Min_cycle;Max_cycle;Signal;HPM_P1;HPM_P2
2022/07/04 00:00:55;;;;;;;19.08;10.55;;;10.50;99.90;;;;;;5079897;28;20052;-22
2022/07/04 00:03:21;;;;;;;17.38;9.52;;;10.50;99.90;;;;;;5079741;28;20470;-22
2022/07/04 00:05:47;;;;;;;16.55;11.13;;;10.40;99.90;;;;;;5078625;28;20198;-22
2022/07/04 00:08:13;;;;;;;13.77;9.85;;;10.40;1.00;;;;;;5079758;28;20041;-22
2022/07/04 00:10:38;;;;;;;17.90;12.00;;;10.50;1.00;;;;;;5079797;28;20051;-22
2022/07/04 00:13:05;;;;;;;15.73;11.18;;;10.50;1.00;;;;;;5080116;28;20048;-22
2022/07/04 00:15:31;;;;;;;18.42;11.27;;;10.50;1.00;;;;;;5079410;28;20056;-22
2022/07/04 00:17:57;;;;;;;13.43;9.82;;;10.40;1.00;;;;;;5079628;28;20044;-22
2022/07/04 00:20:22;;;;;;;14.27;8.85;;;10.30;1.00;;;;;;5078500;28;20044;-22
2022/07/04 00:22:48;;;;;;;15.13;9.05;;;10.20;99.90;;;;;;5079014;28;20080;-22
2022/07/04 00:25:14;;;;;;;12.55;9.35;;;10.10;99.90;;;;;;5079614;28;20050;-22
2022/07/04 00:27:40;;;;;;;16.60;10.52;;;10.00;99.90;;;;;;5079598;28;20040;-21
2022/07/04 00:30:06;;;;;;;18.75;9.63;;;9.90;99.90;;;;;;5077732;28;20047;-22
2022/07/04 00:32:32;;;;;;;11.00;8.75;;;9.80;99.90;;;;;;5076415;28;20041;-22
2022/07/04 00:34:58;;;;;;;11.85;9.35;;;9.80;99.90;;;;;;5075783;28;20477;-22
2022/07/04 00:37:23;;;;;;;15.93;10.25;;;9.60;99.90;;;;;;5076284;28;20097;-21
2022/07/04 00:39:49;;;;;;;15.45;10.75;;;9.70;99.90;;;;;;5076251;28;20045;-22
2022/07/04 00:42:15;;;;;;;18.63;9.80;;;9.60;99.90;;;;;;5075625;28;20052;-22
2022/07/04 00:44:41;;;;;;;11.43;9.02;;;9.60;99.90;;;;;;5076084;28;20041;-22
2022/07/04 00:47:07;;;;;;;22.98;10.13;;;9.60;99.90;;;;;;5074887;28;20552;-22
2022/07/04 00:49:34;;;;;;;20.20;10.15;;;9.50;99.90;;;;;;5074846;28;20048;-22
2022/07/04 00:52:00;;;;;;;15.88;10.60;;;9.60;99.90;;;;;;5075076;28;20052;-22
2022/07/04 00:54:29;;;;;;;18.40;11.68;;;9.80;1.00;;;;;;5075982;28;20567;-22
2022/07/04 00:56:55;;;;;;;15.95;11.60;;;10.00;1.00;;;;;;5076226;28;20040;-22
2022/07/04 00:59:22;;;;;;;21.27;12.93;;;10.20;1.00;;;;;;5075922;28;20140;-22
2022/07/04 01:01:48;;;;;;;23.95;12.15;;;10.30;1.00;;;;;;5076387;28;20083;-22
2022/07/04 01:04:14;;;;;;;20.17;12.20;;;10.40;1.00;;;;;;5076595;28;20123;-22
2022/07/04 01:06:40;;;;;;;17.30;12.25;;;10.60;4.00;;;;;;5075799;28;20091;-22
2022/07/04 01:09:06;;;;;;;19.17;11.73;;;10.60;4.50;;;;;;5075747;28;20045;-22
2022/07/04 01:11:32;;;;;;;17.55;11.70;;;10.70;1.00;;;;;;5075702;28;20482;-22
2022/07/04 01:13:58;;;;;;;17.30;10.20;;;10.60;1.00;;;;;;5074294;28;20044;-22
2022/07/04 01:16:27;;;;;;;17.17;10.38;;;10.50;1.00;;;;;;5076077;28;20048;-22
2022/07/04 01:18:54;;;;;;;16.60;10.65;;;10.40;1.00;;;;;;5076101;28;20137;-22
2022/07/04 01:21:20;;;;;;;17.85;10.80;;;10.40;99.90;;;;;;5075499;28;20110;-22
2022/07/04 01:23:47;;;;;;;13.95;10.45;;;10.30;99.90;;;;;;5075379;28;20083;-22
2022/07/04 01:26:13;;;;;;;14.10;10.32;;;10.30;99.90;;;;;;5074231;28;20049;-22
2022/07/04 01:28:39;;;;;;;18.17;10.85;;;10.20;99.90;;;;;;5058545;28;20045;-22
2022/07/04 01:31:05;;;;;;;18.92;10.13;;;10.20;99.90;;;;;;5074341;28;20044;-22
2022/07/04 01:33:31;;;;;;;22.25;11.25;;;10.10;99.90;;;;;;5075260;28;20386;-22
2022/07/04 01:35:57;;;;;;;17.92;10.75;;;10.00;99.90;;;;;;5075221;28;20048;-22
2022/07/04 01:38:23;;;;;;;17.75;10.60;;;10.00;99.90;;;;;;5075172;28;20119;-22
2022/07/04 01:40:50;;;;;;;18.90;11.60;;;10.10;1.00;;;;;;5075240;28;20084;-22
2022/07/04 01:43:15;;;;;;;14.50;11.20;;;10.10;1.00;;;;;;5075105;28;20517;-22
2022/07/04 01:45:41;;;;;;;20.92;11.45;;;10.00;1.00;;;;;;5073733;28;20048;-22
2022/07/04 01:48:08;;;;;;;18.95;13.13;;;10.10;1.00;;;;;;5074941;28;20131;-22
2022/07/04 01:50:35;;;;;;;15.80;11.50;;;10.10;1.00;;;;;;5074618;28;20509;-22
2022/07/04 01:53:02;;;;;;;13.70;10.88;;;10.10;1.00;;;;;;5074851;28;20047;-22
2022/07/04 01:55:28;;;;;;;15.43;10.68;;;10.10;1.00;;;;;;5074820;28;20055;-22
2022/07/04 01:57:54;;;;;;;18.90;11.60;;;10.10;1.00;;;;;;5074815;28;20048;-22
2022/07/04 02:03:04;;;;;;;16.20;10.57;;;10.10;1.00;;;;;;5074316;28;20143;-22
2022/07/04 02:05:30;;;;;;;23.52;11.60;;;10.10;1.00;;;;;;5057376;28;20496;-22
2022/07/04 02:07:56;;;;;;;16.13;11.57;;;10.10;1.00;;;;;;5057249;28;20116;-22
2022/07/04 02:10:22;;;;;;;16.70;10.40;;;10.20;1.00;;;;;;5074171;28;20486;-22
2022/07/04 02:13:03;;;;;;;18.52;11.25;;;10.10;1.00;;;;;;5074901;28;20057;-22
2022/07/04 02:15:32;;;;;;;15.60;11.75;;;10.10;1.00;;;;;;5075108;28;20049;-22
2022/07/04 02:17:58;;;;;;;19.00;12.68;;;10.10;1.00;;;;;;5074257;28;20095;-22
2022/07/04 02:20:24;;;;;;;17.00;11.05;;;10.10;1.00;;;;;;5074911;28;20055;-22
2022/07/04 02:22:50;;;;;;;24.15;11.57;;;10.10;1.00;;;;;;5074271;28;20051;-22
2022/07/04 02:25:16;;;;;;;18.95;12.80;;;10.10;1.00;;;;;;5073285;28;20049;-22
2022/07/04 02:27:42;;;;;;;20.38;11.73;;;10.20;1.00;;;;;;5073198;28;20056;-22
2022/07/04 02:30:08;;;;;;;19.67;12.93;;;10.10;1.00;;;;;;5074735;28;20049;-22
2022/07/04 02:32:35;;;;;;;21.63;13.05;;;10.10;1.00;;;;;;5074129;28;20047;-22
2022/07/04 02:35:01;;;;;;;17.77;12.25;;;10.10;1.00;;;;;;5074051;28;20112;-22
2022/07/04 02:37:27;;;;;;;21.88;12.73;;;10.10;1.00;;;;;;5072899;28;20051;-22
2022/07/04 02:39:53;;;;;;;19.15;13.07;;;10.10;1.00;;;;;;5074071;28;20048;-22
2022/07/04 02:42:19;;;;;;;24.33;13.20;;;10.00;1.00;;;;;;5073999;28;20170;-21
2022/07/04 02:44:45;;;;;;;20.73;14.68;;;10.10;1.00;;;;;;5074135;28;20055;-22
2022/07/04 02:47:11;;;;;;;22.40;14.25;;;10.10;1.00;;;;;;5073952;28;20198;-22
2022/07/04 02:49:37;;;;;;;21.63;14.15;;;10.10;1.00;;;;;;5073884;28;20128;-22
2022/07/04 02:52:03;;;;;;;23.38;13.82;;;10.10;1.00;;;;;;5073854;28;20050;-22
2022/07/04 02:54:29;;;;;;;26.35;15.95;;;10.10;1.00;;;;;;5073339;28;20399;-22
2022/07/04 02:56:54;;;;;;;32.30;16.77;;;10.10;1.00;;;;;;5072622;28;20044;-22
2022/07/04 02:59:20;;;;;;;24.20;15.05;;;10.00;1.00;;;;;;5073854;28;20098;-22
2022/07/04 03:01:46;;;;;;;24.25;16.05;;;10.10;1.00;;;;;;5073782;28;20122;-21
2022/07/04 03:04:12;;;;;;;27.35;17.85;;;10.20;13.70;;;;;;5073664;28;20120;-22
2022/07/04 03:06:39;;;;;;;25.17;17.30;;;10.20;36.70;;;;;;5073675;28;20080;-22
2022/07/04 03:09:06;;;;;;;24.70;16.15;;;10.30;55.00;;;;;;5072478;28;20076;-22
2022/07/04 03:11:32;;;;;;;26.25;17.80;;;10.30;64.00;;;;;;5073615;28;20040;-22
2022/07/04 03:13:57;;;;;;;26.63;17.15;;;10.30;70.10;;;;;;5074238;28;20415;-22
2022/07/04 03:16:23;;;;;;;23.58;16.80;;;10.40;86.50;;;;;;5073530;28;20102;-22
2022/07/04 03:18:49;;;;;;;25.52;16.70;;;10.50;94.40;;;;;;5072951;28;20119;-22
2022/07/04 03:21:15;;;;;;;29.88;20.10;;;10.50;99.90;;;;;;5055974;28;20049;-22
2022/07/04 03:23:40;;;;;;;26.25;17.00;;;10.50;99.90;;;;;;5073486;28;20052;-22
2022/07/04 03:26:06;;;;;;;32.78;19.73;;;10.60;99.90;;;;;;5073527;28;20537;-22
2022/07/04 03:28:32;;;;;;;31.15;18.58;;;10.70;99.90;;;;;;5073813;28;20478;-22
2022/07/04 03:30:58;;;;;;;28.35;18.73;;;10.60;99.90;;;;;;5072824;28;20138;-22
2022/07/04 03:33:24;;;;;;;28.08;18.73;;;10.60;99.90;;;;;;5072268;28;20098;-22
2022/07/04 03:35:50;;;;;;;24.73;18.70;;;10.70;99.90;;;;;;5073444;28;20052;-22
2022/07/04 03:38:15;;;;;;;31.83;21.05;;;10.70;99.90;;;;;;5072698;28;20417;-22
2022/07/04 03:40:41;;;;;;;34.17;20.80;;;10.80;99.90;;;;;;5072187;28;20067;-22
2022/07/04 03:43:07;;;;;;;31.50;20.15;;;10.80;99.90;;;;;;5073373;28;20049;-22
2022/07/04 03:45:33;;;;;;;27.35;18.88;;;10.70;99.90;;;;;;5073264;28;20493;-22
2022/07/04 03:47:59;;;;;;;27.83;18.60;;;10.70;99.90;;;;;;5073238;28;20040;-22
2022/07/04 03:50:25;;;;;;;27.98;18.25;;;10.60;99.90;;;;;;5072256;28;20136;-22
2022/07/04 03:52:51;;;;;;;29.02;19.13;;;10.70;99.90;;;;;;5073496;28;20052;-22
2022/07/04 03:55:17;;;;;;;26.83;18.40;;;10.70;99.90;;;;;;5055424;28;20410;-22
2022/07/04 03:57:43;;;;;;;36.28;19.95;;;10.70;99.90;;;;;;5072046;28;20040;-22
2022/07/04 04:00:10;;;;;;;34.17;20.88;;;10.70;99.90;;;;;;5055596;28;20109;-22
2022/07/04 04:02:36;;;;;;;29.73;19.30;;;10.70;99.90;;;;;;5073226;28;20076;-22
2022/07/04 04:07:47;;;;;;;31.60;21.85;;;10.80;99.90;;;;;;5076910;28;20050;-22
2022/07/04 04:10:13;;;;;;;30.13;23.58;;;10.80;99.90;;;;;;5076639;28;20045;-22
2022/07/04 04:12:39;;;;;;;32.47;25.33;;;10.80;99.90;;;;;;5076631;28;20056;-22
2022/07/04 04:15:05;;;;;;;37.25;27.27;;;10.90;99.90;;;;;;5076743;28;20044;-22
2022/07/04 04:17:31;;;;;;;40.00;29.42;;;11.00;99.90;;;;;;5075667;28;20372;-22
2022/07/04 04:19:56;;;;;;;46.42;33.65;;;11.20;99.90;;;;;;5077159;28;20105;-22
2022/07/04 04:22:22;;;;;;;41.40;31.65;;;11.20;99.90;;;;;;5076599;28;20044;-23
2022/07/04 04:24:48;;;;;;;37.60;28.95;;;11.40;99.90;;;;;;5076507;28;20103;-22
2022/07/04 04:27:13;;;;;;;35.55;25.60;;;11.50;99.90;;;;;;5076530;28;20044;-22
2022/07/04 04:29:39;;;;;;;38.90;26.13;;;11.70;99.90;;;;;;5075259;28;20121;-22
2022/07/04 04:32:05;;;;;;;31.50;24.67;;;11.80;99.90;;;;;;5076506;28;20048;-22
2022/07/04 04:34:31;;;;;;;35.15;25.48;;;11.90;99.90;;;;;;5076386;28;20127;-22
2022/07/04 04:36:57;;;;;;;21.25;18.40;;;12.10;99.90;;;;;;5075774;28;20465;-22
2022/07/04 04:39:23;;;;;;;27.35;20.08;;;12.20;99.90;;;;;;5076303;28;20383;-22
2022/07/04 04:41:48;;;;;;;26.83;18.55;;;12.30;99.90;;;;;;5075939;28;20079;-22
2022/07/04 04:44:14;;;;;;;19.85;14.60;;;12.40;99.90;;;;;;5074875;28;20044;-22
2022/07/04 04:46:40;;;;;;;21.88;13.77;;;12.50;99.90;;;;;;5075291;28;20051;-22
2022/07/04 04:49:05;;;;;;;15.25;11.43;;;12.50;99.90;;;;;;5075739;28;20534;-22
2022/07/04 04:51:31;;;;;;;21.33;12.52;;;12.60;99.90;;;;;;5075165;28;20048;-22
2022/07/04 04:53:57;;;;;;;18.98;10.25;;;12.70;99.90;;;;;;5074902;28;20051;-22
2022/07/04 04:56:23;;;;;;;16.55;12.25;;;12.80;99.90;;;;;;5076576;28;20177;-22
2022/07/04 04:58:49;;;;;;;14.70;11.38;;;12.80;99.90;;;;;;5076487;28;20504;-22
2022/07/04 05:01:14;;;;;;;16.58;10.75;;;12.90;99.90;;;;;;5075930;28;20045;-22
2022/07/04 05:03:40;;;;;;;13.60;10.38;;;13.00;99.90;;;;;;5075170;28;20102;-22
2022/07/04 05:06:06;;;;;;;14.10;9.48;;;13.10;99.90;;;;;;5074580;28;20528;-22
2022/07/04 05:08:32;;;;;;;12.40;8.88;;;13.30;99.90;;;;;;5074854;28;20048;-22
2022/07/04 05:10:57;;;;;;;10.93;8.35;;;13.60;99.90;;;;;;5058391;28;20190;-22
2022/07/04 05:13:24;;;;;;;13.60;7.85;;;13.60;99.90;;;;;;5075664;28;20083;-22
2022/07/04 05:15:51;;;;;;;14.25;7.65;;;13.50;99.90;;;;;;5074018;28;20456;-22
2022/07/04 05:18:16;;;;;;;13.05;8.55;;;13.60;99.90;;;;;;5075530;28;20456;-22
2022/07/04 05:20:42;;;;;;;12.77;8.77;;;14.30;99.90;;;;;;5074625;28;20045;-22
2022/07/04 05:23:08;;;;;;;12.38;7.80;;;14.90;99.90;;;;;;5075757;28;20044;-22
2022/07/04 05:25:33;;;;;;;11.55;8.40;;;15.60;99.90;;;;;;5075396;28;20473;-23
2022/07/04 05:27:59;;;;;;;14.30;8.00;;;15.90;1.00;;;;;;5075425;28;20498;-23
2022/07/04 05:30:25;;;;;;;8.90;6.57;;;15.80;99.90;;;;;;5075363;28;20498;-23
2022/07/04 05:32:51;;;;;;;10.25;6.68;;;15.60;99.90;;;;;;5074317;28;20055;-23
2022/07/04 05:35:17;;;;;;;7.03;5.63;;;15.80;30.50;;;;;;5074627;28;20037;-22
2022/07/04 05:37:43;;;;;;;8.80;6.60;;;16.30;1.00;;;;;;5075233;28;20477;-23
2022/07/04 05:40:10;;;;;;;13.52;6.88;;;16.80;99.90;;;;;;5075702;28;20056;-23
2022/07/04 05:42:36;;;;;;;12.40;7.00;;;16.80;99.90;;;;;;5075086;28;20040;-22
2022/07/04 05:45:02;;;;;;;11.05;6.03;;;17.00;1.00;;;;;;5073894;28;20040;-22
2022/07/04 05:47:28;;;;;;;7.47;5.30;;;17.10;99.90;;;;;;5074058;28;20040;-23
2022/07/04 05:49:53;;;;;;;12.18;6.38;;;16.90;99.90;;;;;;5075477;28;20066;-22
2022/07/04 05:52:19;;;;;;;15.85;6.82;;;16.80;99.90;;;;;;5073909;28;20110;-23
2022/07/04 05:54:45;;;;;;;10.27;6.68;;;16.90;1.00;;;;;;5075381;28;20051;-23
2022/07/04 05:57:11;;;;;;;11.23;6.68;;;16.80;99.90;;;;;;5074823;28;20053;-23
2022/07/04 05:59:36;;;;;;;8.40;5.45;;;16.90;99.90;;;;;;5073547;28;20055;-23
2022/07/04 06:02:03;;;;;;;10.68;4.80;;;16.90;99.90;;;;;;5074373;28;20129;-23
2022/07/04 06:04:28;;;;;;;8.57;4.40;;;17.20;99.90;;;;;;5074230;28;20380;-23
2022/07/04 06:06:54;;;;;;;10.35;5.55;;;17.80;99.90;;;;;;5074607;28;20139;-23
2022/07/04 06:09:20;;;;;;;8.60;4.30;;;18.10;23.70;;;;;;5074450;28;20433;-23
2022/07/04 06:11:46;;;;;;;9.82;4.50;;;18.60;1.00;;;;;;5074489;28;20127;-23
2022/07/04 06:14:12;;;;;;;6.03;4.00;;;18.70;99.90;;;;;;5074602;28;20052;-23
2022/07/04 06:16:37;;;;;;;10.25;3.60;;;18.70;1.00;;;;;;5074371;28;20089;-23
2022/07/04 06:19:03;;;;;;;8.85;4.75;;;18.60;99.90;;;;;;5073997;28;20041;-23
2022/07/04 06:21:29;;;;;;;8.15;3.90;;;18.50;99.90;;;;;;5074349;28;20040;-23
2022/07/04 06:23:57;;;;;;;6.30;4.00;;;18.70;99.90;;;;;;5074246;28;20139;-23
2022/07/04 06:26:23;;;;;;;9.23;4.10;;;19.00;99.90;;;;;;5040365;28;20041;-23
2022/07/04 06:28:48;;;;;;;5.90;3.63;;;19.20;99.90;;;;;;5073942;28;20105;-23
2022/07/04 06:31:14;;;;;;;8.82;4.25;;;19.30;99.90;;;;;;5074011;28;20044;-23
2022/07/04 06:36:24;;;;;;;6.60;2.90;;;19.40;94.10;;;;;;5073708;28;20051;-23
2022/07/04 06:38:50;;;;;;;8.88;3.70;;;19.50;99.90;;;;;;5074105;28;20127;-23
2022/07/04 06:41:16;;;;;;;5.43;3.58;;;19.90;59.60;;;;;;5074077;28;20412;-23
2022/07/04 06:43:41;;;;;;;8.70;3.25;;;20.00;1.00;;;;;;5073997;28;20056;-23
2022/07/04 06:46:07;;;;;;;6.38;3.42;;;20.10;1.00;;;;;;5073990;28;20049;-23
2022/07/04 06:48:33;;;;;;;8.23;3.38;;;20.10;1.00;;;;;;5073555;28;20081;-24
2022/07/04 06:50:58;;;;;;;10.23;4.47;;;20.30;1.00;;;;;;5074457;28;20144;-23
2022/07/04 06:53:24;;;;;;;5.93;3.20;;;20.30;1.00;;;;;;5073839;28;20143;-23
2022/07/04 06:55:50;;;;;;;8.00;4.45;;;19.90;1.00;;;;;;5073839;28;20037;-23
2022/07/04 06:58:15;;;;;;;7.82;3.00;;;19.60;98.50;;;;;;5072651;28;20129;-23
2022/07/04 07:00:42;;;;;;;8.70;3.83;;;19.20;99.90;;;;;;5073792;28;20504;-23
2022/07/04 07:03:08;;;;;;;7.72;3.08;;;19.10;99.90;;;;;;5073818;28;20048;-23
2022/07/04 07:05:36;;;;;;;6.88;3.17;;;19.40;99.90;;;;;;5072513;28;20049;-24
2022/07/04 07:08:05;;;;;;;8.15;3.80;;;19.30;99.90;;;;;;5073708;28;20478;-23
2022/07/04 07:10:35;;;;;;;10.32;3.78;;;19.00;99.90;;;;;;5074280;28;20048;-24
2022/07/04 07:13:02;;;;;;;6.97;3.28;;;18.90;99.90;;;;;;5074211;28;20056;-23
2022/07/04 07:15:28;;;;;;;11.63;3.50;;;18.80;99.90;;;;;;5073500;28;20056;-23
2022/07/04 07:17:54;;;;;;;11.02;4.07;;;18.40;99.90;;;;;;5072346;28;20040;-23
2022/07/04 07:20:20;;;;;;;9.13;3.33;;;18.20;99.90;;;;;;5073588;28;20071;-23
2022/07/04 07:22:46;;;;;;;9.13;3.25;;;18.00;1.00;;;;;;5073604;28;20052;-23
2022/07/04 07:25:12;;;;;;;7.88;3.65;;;17.80;99.90;;;;;;5073740;28;20437;-23
2022/07/04 07:27:39;;;;;;;9.52;3.28;;;17.80;1.00;;;;;;5072402;28;20495;-23
2022/07/04 07:30:05;;;;;;;9.75;3.90;;;18.00;1.00;;;;;;5072192;28;20083;-23
2022/07/04 07:32:32;;;;;;;9.10;3.10;;;18.30;1.00;;;;;;5073442;28;20486;-23
2022/07/04 07:34:58;;;;;;;11.43;3.38;;;18.30;99.90;;;;;;5073510;28;20040;-24
2022/07/04 07:37:23;;;;;;;7.53;2.65;;;18.20;1.00;;;;;;5073497;28;20372;-23
2022/07/04 07:39:50;;;;;;;8.52;3.28;;;17.90;99.90;;;;;;5075506;28;20038;-23
2022/07/04 07:42:16;;;;;;;7.03;3.08;;;17.60;1.00;;;;;;5077989;28;20048;-23
2022/07/04 07:44:45;;;;;;;8.57;2.90;;;17.40;1.00;;;;;;5076228;28;20474;-23
2022/07/04 07:47:13;;;;;;;7.28;3.42;;;17.40;1.00;;;;;;5077940;28;20052;-23
2022/07/04 07:49:39;;;;;;;7.78;2.85;;;17.30;1.00;;;;;;5077244;28;20055;-23
2022/07/04 07:52:05;;;;;;;6.07;2.80;;;17.40;1.00;;;;;;5078050;28;20432;-24
2022/07/04 07:54:30;;;;;;;7.10;2.45;;;17.50;1.00;;;;;;5077182;28;20037;-24
2022/07/04 07:56:56;;;;;;;5.85;2.50;;;17.60;99.90;;;;;;5077161;28;20040;-24
2022/07/04 07:59:22;;;;;;;9.10;2.17;;;17.70;99.90;;;;;;5077661;28;20128;-24
2022/07/04 08:01:47;;;;;;;9.85;3.13;;;17.80;99.90;;;;;;5076991;28;20080;-24
2022/07/04 08:06:57;;;;;;;4.93;1.83;;;18.30;99.90;;;;;;5076672;28;20559;-24
2022/07/04 08:09:23;;;;;;;3.50;1.55;;;19.00;99.90;;;;;;5075713;28;20044;-24
2022/07/04 08:11:49;;;;;;;7.07;1.70;;;19.50;1.00;;;;;;5076827;28;20557;-24
2022/07/04 08:14:14;;;;;;;7.22;0.77;;;19.70;1.00;;;;;;5077365;28;20056;-24
2022/07/04 08:16:40;;;;;;;2.10;0.82;;;19.60;1.00;;;;;;5075707;28;20063;-24
2022/07/04 08:19:06;;;;;;;4.28;0.80;;;19.30;1.00;;;;;;5076733;28;20139;-24
2022/07/04 08:21:32;;;;;;;3.22;0.60;;;18.80;1.00;;;;;;5076624;28;20053;-24
2022/07/04 08:23:57;;;;;;;1.92;0.80;;;18.50;1.00;;;;;;5076580;28;20094;-24
2022/07/04 08:26:24;;;;;;;2.92;0.95;;;18.70;95.30;;;;;;5076597;28;20398;-24
2022/07/04 08:28:51;;;;;;;3.55;1.23;;;18.90;99.90;;;;;;5076536;28;20486;-24
2022/07/04 08:31:18;;;;;;;6.40;1.58;;;19.10;1.00;;;;;;5077356;28;20071;-24
2022/07/04 08:33:44;;;;;;;4.47;1.17;;;19.10;99.90;;;;;;5076421;28;20505;-24
2022/07/04 08:36:10;;;;;;;3.22;0.93;;;19.30;99.90;;;;;;5076399;28;20048;-24
2022/07/04 08:38:35;;;;;;;3.47;1.30;;;19.40;1.00;;;;;;5076671;28;20119;-24
2022/07/04 08:41:03;;;;;;;2.95;0.95;;;19.30;58.80;;;;;;5076894;28;20466;-24
2022/07/04 08:43:35;;;;;;;3.63;1.10;;;19.60;99.90;;;;;;5076286;28;20117;-24
2022/07/04 08:46:04;;;;;;;3.33;0.70;;;20.20;99.90;;;;;;5075003;28;20048;-24
2022/07/04 08:48:31;;;;;;;2.40;0.70;;;20.40;99.90;;;;;;5076762;28;20376;-24
2022/07/04 08:51:04;;;;;;;1.95;0.60;;;20.60;99.90;;;;;;5075252;28;20131;-24
2022/07/04 08:53:33;;;;;;;5.78;0.75;;;20.90;99.90;;;;;;5076473;28;20044;-25
2022/07/04 08:58:45;;;;;;;2.38;0.50;;;21.40;1.00;;;;;;5076882;28;20095;-25
2022/07/04 09:01:14;;;;;;;3.63;0.70;;;21.60;1.00;;;;;;5076537;28;20045;-25
2022/07/04 09:03:45;;;;;;;0.65;0.50;;;21.70;1.00;;;;;;5075938;28;20062;-25
2022/07/04 09:06:12;;;;;;;1.75;0.57;;;21.50;92.60;;;;;;5075867;28;20092;-25
2022/07/04 09:08:39;;;;;;;6.30;0.73;;;21.50;99.90;;;;;;5075810;28;20056;-25
2022/07/04 09:11:05;;;;;;;3.38;0.75;;;21.70;99.90;;;;;;5075858;28;20132;-25
2022/07/04 09:13:32;;;;;;;2.70;0.63;;;20.90;99.90;;;;;;5075550;28;20060;-25
2022/07/04 09:15:57;;;;;;;1.75;0.55;;;20.80;1.00;;;;;;5075314;28;20091;-25
2022/07/04 09:18:25;;;;;;;2.70;0.40;;;20.60;99.90;;;;;;5074623;28;20506;-25
2022/07/04 09:20:55;;;;;;;2.05;0.75;;;20.50;99.90;;;;;;5075664;28;20093;-25
2022/07/04 09:23:26;;;;;;;3.28;0.80;;;20.80;1.00;;;;;;5059416;28;20106;-25
2022/07/04 09:26:13;;;;;;;2.42;0.60;;;21.30;1.00;;;;;;5076011;28;20045;-25
2022/07/04 09:28:42;;;;;;;5.38;1.00;;;21.80;1.00;;;;;;5075405;28;20113;-25
2022/07/04 09:31:22;;;;;;;2.30;0.47;;;22.20;1.00;;;;;;5074442;28;20045;-25
2022/07/04 09:33:55;;;;;;;2.35;0.73;;;22.50;1.00;;;;;;5075408;28;20036;-27
2022/07/04 09:36:25;;;;;;;1.10;0.38;;;22.50;99.90;;;;;;5075155;28;20482;-25
2022/07/04 09:39:24;;;;;;;3.38;0.68;;;21.90;99.90;;;;;;5074383;28;20087;-25
2022/07/04 09:42:03;;;;;;;3.25;0.70;;;21.00;99.90;;;;;;5063047;28;20118;-25
2022/07/04 09:44:44;;;;;;;2.67;0.40;;;20.60;99.90;;;;;;5075581;28;20123;-25
2022/07/04 09:47:23;;;;;;;3.42;0.60;;;19.90;1.00;;;;;;5075107;28;20079;-25
2022/07/04 09:50:19;;;;;;;3.90;1.23;;;19.30;38.40;;;;;;5075605;28;20041;-25
2022/07/04 09:52:53;;;;;;;6.53;0.70;;;19.70;99.90;;;;;;5070573;28;20060;-25
2022/07/04 09:55:29;;;;;;;3.83;1.25;;;19.60;57.60;;;;;;5074946;28;20037;-25
2022/07/04 09:58:07;;;;;;;2.30;0.63;;;19.40;99.90;;;;;;5074837;28;20123;-25
2022/07/04 10:00:35;;;;;;;4.57;1.17;;;19.30;99.90;;;;;;5075419;28;20054;-25
2022/07/04 10:03:32;;;;;;;5.13;0.88;;;19.10;99.90;;;;;;5074696;28;20410;-25
2022/07/04 10:06:11;;;;;;;4.88;0.90;;;19.00;1.00;;;;;;5075270;28;20087;-25
2022/07/04 10:08:40;;;;;;;2.55;0.80;;;19.00;1.00;;;;;;5075422;28;20067;-25
2022/07/04 10:11:07;;;;;;;5.55;1.35;;;19.90;8.50;;;;;;5074582;28;20049;-26
2022/07/04 10:13:33;;;;;;;3.58;0.90;;;20.80;99.90;;;;;;5074205;28;20060;-26
2022/07/04 10:15:59;;;;;;;3.03;1.10;;;21.40;99.90;;;;;;5074536;28;20106;-26
2022/07/04 10:18:26;;;;;;;3.63;0.77;;;21.20;71.20;;;;;;5073165;28;20045;-26
2022/07/04 10:20:54;;;;;;;3.13;0.80;;;20.50;99.90;;;;;;5074386;28;20051;-25
2022/07/04 10:23:21;;;;;;;3.15;0.80;;;19.90;1.00;;;;;;5074214;28;20059;-25
2022/07/04 10:25:48;;;;;;;1.45;0.70;;;19.50;1.00;;;;;;5074206;28;20047;-26
2022/07/04 10:28:14;;;;;;;4.40;0.73;;;19.30;36.60;;;;;;5074195;28;20041;-25
2022/07/04 10:30:41;;;;;;;13.25;8.75;;;19.10;99.90;;;;;;5073608;28;20053;-25
2022/07/04 10:33:09;;;;;;;27.63;14.93;;;18.90;99.90;;;;;;5074225;28;20052;-25
2022/07/04 10:35:53;;;;;;;8.50;3.58;;;18.70;99.90;;;;;;5074460;28;20059;-26
2022/07/04 10:38:31;;;;;;;3.00;1.80;;;19.20;99.90;;;;;;5073111;28;20385;-25
2022/07/04 10:41:04;;;;;;;2.08;0.55;;;20.20;99.90;;;;;;5074076;28;20036;-25
2022/07/04 10:43:41;;;;;;;2.10;0.80;;;21.10;1.00;;;;;;5056748;28;20084;-26
2022/07/04 10:46:12;;;;;;;3.30;0.63;;;21.40;99.90;;;;;;5056637;28;20040;-26
2022/07/04 10:48:58;;;;;;;2.83;0.50;;;21.60;90.80;;;;;;5073947;28;20054;-26
2022/07/04 10:51:52;;;;;;;12.20;9.10;;;21.40;1.00;;;;;;5073507;28;20052;-26
2022/07/04 10:54:21;;;;;;;3.00;1.15;;;21.10;1.00;;;;;;5073867;28;20090;-26
2022/07/04 10:56:57;;;;;;;2.05;0.70;;;21.30;52.60;;;;;;5074401;28;20080;-26
2022/07/04 10:59:28;;;;;;;2.83;0.80;;;21.50;1.00;;;;;;5073790;28;20482;-26
2022/07/04 11:02:06;;;;;;;3.10;1.15;;;21.40;30.30;;;;;;5073785;28;20044;-27
2022/07/04 11:04:49;;;;;;;1.52;0.63;;;20.80;1.00;;;;;;5073725;28;20060;-26
2022/07/04 11:07:17;;;;;;;1.40;0.57;;;20.60;1.00;;;;;;5073709;28;20086;-26
2022/07/04 11:09:43;;;;;;;4.43;1.90;;;20.70;99.90;;;;;;5074228;28;20507;-26
2022/07/04 11:12:09;;;;;;;4.70;1.27;;;21.30;1.00;;;;;;5073714;28;20048;-27
2022/07/04 11:14:46;;;;;;;2.45;0.70;;;22.10;1.00;;;;;;5073323;28;20133;-26
2022/07/04 11:17:36;;;;;;;3.15;0.70;;;22.10;76.60;;;;;;5073643;28;20099;-26
2022/07/04 11:20:03;;;;;;;1.90;0.63;;;22.20;1.00;;;;;;5074209;28;20048;-26
2022/07/04 11:22:32;;;;;;;3.65;2.50;;;22.30;99.90;;;;;;5073644;28;20084;-26
2022/07/04 11:24:57;;;;;;;2.38;0.93;;;22.30;1.00;;;;;;5073452;28;20036;-28
2022/07/04 11:27:23;;;;;;;2.08;1.35;;;22.30;1.00;;;;;;5073862;28;20131;-27
2022/07/04 11:29:55;;;;;;;2.75;1.25;;;22.30;1.00;;;;;;5073539;28;20045;-26
2022/07/04 11:32:29;;;;;;;2.70;0.60;;;22.60;1.00;;;;;;5073561;28;20048;-26
2022/07/04 11:34:55;;;;;;;31.13;19.52;;;22.40;1.00;;;;;;5073791;28;20048;-26
2022/07/04 11:37:21;;;;;;;11.23;5.18;;;22.40;1.00;;;;;;5073962;28;20505;-26
2022/07/04 11:39:51;;;;;;;2.92;0.70;;;22.40;1.00;;;;;;5074020;28;20084;-26
2022/07/04 11:45:07;;;;;;;21.90;15.57;;;22.40;99.90;;;;;;5073308;28;20060;-27
2022/07/04 11:47:37;;;;;;;8.70;4.90;;;22.50;99.90;;;;;;5073969;28;20371;-26
2022/07/04 11:50:06;;;;;;;2.60;1.00;;;22.40;93.20;;;;;;5073272;28;20036;-27
2022/07/04 11:52:38;;;;;;;2.88;0.52;;;22.40;99.90;;;;;;5072311;28;20487;-26
2022/07/04 11:55:10;;;;;;;2.93;0.60;;;22.50;99.90;;;;;;5074076;28;20048;-28
2022/07/04 11:57:40;;;;;;;6.97;1.10;;;22.50;99.90;;;;;;5073266;28;20279;-27
2022/07/04 12:00:08;;;;;;;1.33;0.38;;;22.20;99.90;;;;;;5072809;28;20417;-26
2022/07/04 12:02:34;;;;;;;2.55;0.50;;;21.40;99.90;;;;;;5073149;28;20052;-26
2022/07/04 12:05:03;;;;;;;3.42;0.50;;;21.10;99.90;;;;;;5072771;28;20401;-26
2022/07/04 12:07:34;;;;;;;2.33;0.50;;;21.40;99.90;;;;;;5073122;28;20056;-26
2022/07/04 12:10:12;;;;;;;2.05;0.50;;;21.70;76.50;;;;;;5073178;28;20052;-26
2022/07/04 12:12:52;;;;;;;1.23;0.45;;;21.70;50.70;;;;;;5072945;28;20067;-27
2022/07/04 12:15:18;;;;;;;4.63;0.70;;;21.90;78.90;;;;;;5073977;28;20084;-26
2022/07/04 12:17:47;;;;;;;3.55;0.50;;;21.80;99.90;;;;;;5072992;28;20048;-26
2022/07/04 12:20:17;;;;;;;4.53;0.70;;;21.80;99.90;;;;;;5073001;28;20048;-27
2022/07/04 12:22:54;;;;;;;1.77;0.65;;;21.50;97.60;;;;;;5073136;28;20045;-26
2022/07/04 12:25:25;;;;;;;2.60;0.85;;;21.50;99.90;;;;;;5072982;28;20043;-27
2022/07/04 12:27:53;;;;;;;1.75;0.57;;;21.40;99.90;;;;;;5076499;28;20056;-27
2022/07/04 12:30:21;;;;;;;3.88;0.80;;;21.30;99.90;;;;;;5076518;28;20051;-27
2022/07/04 12:32:52;;;;;;;7.05;1.20;;;21.40;99.90;;;;;;5077066;28;20397;-26
2022/07/04 12:35:43;;;;;;;2.00;0.50;;;21.50;99.90;;;;;;5076441;28;20049;-26
2022/07/04 12:38:10;;;;;;;4.95;0.88;;;21.80;99.90;;;;;;5076082;28;20486;-26
2022/07/04 12:40:37;;;;;;;3.17;0.60;;;21.90;99.90;;;;;;5076369;28;20052;-26
2022/07/04 12:43:03;;;;;;;1.63;0.43;;;21.60;99.90;;;;;;5075617;28;20045;-26
2022/07/04 12:46:04;;;;;;;4.35;0.68;;;21.60;99.90;;;;;;5076774;28;20370;-27
2022/07/04 12:48:30;;;;;;;2.17;0.52;;;21.70;99.90;;;;;;5054052;28;20048;-26
2022/07/04 12:51:17;;;;;;;2.30;0.50;;;21.50;99.90;;;;;;5071794;28;20055;-27
2022/07/04 12:53:44;;;;;;;2.47;0.40;;;21.50;60.80;;;;;;5076706;28;20102;-26
2022/07/04 12:56:27;;;;;;;2.42;0.57;;;21.40;55.80;;;;;;5058343;28;20462;-26
2022/07/04 12:58:53;;;;;;;;;;;21.20;1.00;;;;;;5076050;28;20071;-27
2022/07/04 13:01:18;;;;;;;2.95;0.60;;;21.10;1.00;;;;;;5076302;28;20362;-26
2022/07/04 13:03:44;;;;;;;2.58;0.52;;;21.10;48.40;;;;;;5076345;28;20466;-27